sensor_id;sensor_type;location;lat;lon;timestamp;P1;durP1;ratioP1;P2;durP2;ratioP2
80926;SDS011;70385;44.538;18.532;2024-02-26T00:01:16;273.63;;;114.95;;
80926;SDS011;70385;44.538;18.532;2024-02-26T00:03:42;337.98;;;128.02;;
80926;SDS011;70385;44.538;18.532;2024-02-26T00:06:10;295.60;;;123.75;;
80926;SDS011;70385;44.538;18.532;2024-02-26T00:08:36;283.33;;;117.13;;
80926;SDS011;70385;44.538;18.532;2024-02-26T00:11:02;302.40;;;120.60;;
80926;SDS011;70385;44.538;18.532;2024-02-26T00:13:29;468.00;;;139.50;;
80926;SDS011;70385;44.538;18.532;2024-02-26T00:15:58;380.15;;;133.40;;
80926;SDS011;70385;44.538;18.532;2024-02-26T00:18:23;288.55;;;125.50;;
80926;SDS011;70385;44.538;18.532;2024-02-26T00:20:50;298.73;;;121.85;;
80926;SDS011;70385;44.538;18.532;2024-02-26T00:23:16;275.23;;;121.32;;
80926;SDS011;70385;44.538;18.532;2024-02-26T00:25:49;262.33;;;115.30;;
80926;SDS011;70385;44.538;18.532;2024-02-26T00:28:16;289.65;;;123.07;;
80926;SDS011;70385;44.538;18.532;2024-02-26T00:30:47;375.50;;;135.98;;
80926;SDS011;70385;44.538;18.532;2024-02-26T00:33:16;412.77;;;144.30;;
80926;SDS011;70385;44.538;18.532;2024-02-26T00:35:43;358.08;;;136.38;;
80926;SDS011;70385;44.538;18.532;2024-02-26T00:38:09;372.02;;;142.90;;
80926;SDS011;70385;44.538;18.532;2024-02-26T00:40:36;347.52;;;133.35;;
80926;SDS011;70385;44.538;18.532;2024-02-26T00:43:02;342.73;;;128.93;;
80926;SDS011;70385;44.538;18.532;2024-02-26T00:45:28;311.70;;;130.27;;
80926;SDS011;70385;44.538;18.532;2024-02-26T00:47:54;329.58;;;124.70;;
80926;SDS011;70385;44.538;18.532;2024-02-26T00:50:21;310.38;;;126.38;;
80926;SDS011;70385;44.538;18.532;2024-02-26T00:52:51;278.88;;;118.28;;
80926;SDS011;70385;44.538;18.532;2024-02-26T00:55:17;316.27;;;126.43;;
80926;SDS011;70385;44.538;18.532;2024-02-26T00:57:44;533.50;;;146.93;;
80926;SDS011;70385;44.538;18.532;2024-02-26T01:00:11;412.70;;;131.10;;
80926;SDS011;70385;44.538;18.532;2024-02-26T01:02:40;258.60;;;114.20;;
80926;SDS011;70385;44.538;18.532;2024-02-26T01:05:08;395.33;;;124.50;;
80926;SDS011;70385;44.538;18.532;2024-02-26T01:07:39;272.27;;;111.90;;
80926;SDS011;70385;44.538;18.532;2024-02-26T01:10:07;306.95;;;119.78;;
80926;SDS011;70385;44.538;18.532;2024-02-26T01:12:34;432.65;;;128.77;;
80926;SDS011;70385;44.538;18.532;2024-02-26T01:15:01;359.88;;;125.07;;
80926;SDS011;70385;44.538;18.532;2024-02-26T01:17:31;487.23;;;134.00;;
80926;SDS011;70385;44.538;18.532;2024-02-26T01:19:57;323.25;;;124.18;;
80926;SDS011;70385;44.538;18.532;2024-02-26T01:22:26;513.60;;;144.40;;
80926;SDS011;70385;44.538;18.532;2024-02-26T01:24:53;363.30;;;128.80;;
80926;SDS011;70385;44.538;18.532;2024-02-26T01:27:18;425.55;;;137.30;;
80926;SDS011;70385;44.538;18.532;2024-02-26T01:29:44;267.58;;;118.63;;
80926;SDS011;70385;44.538;18.532;2024-02-26T01:32:10;253.90;;;115.07;;
80926;SDS011;70385;44.538;18.532;2024-02-26T01:34:36;398.35;;;141.55;;
80926;SDS011;70385;44.538;18.532;2024-02-26T01:37:03;449.30;;;145.32;;
80926;SDS011;70385;44.538;18.532;2024-02-26T01:39:29;398.65;;;134.50;;
80926;SDS011;70385;44.538;18.532;2024-02-26T01:41:55;393.25;;;131.85;;
80926;SDS011;70385;44.538;18.532;2024-02-26T01:44:21;421.77;;;139.65;;
80926;SDS011;70385;44.538;18.532;2024-02-26T01:46:47;435.80;;;145.93;;
80926;SDS011;70385;44.538;18.532;2024-02-26T01:49:20;407.60;;;142.85;;
80926;SDS011;70385;44.538;18.532;2024-02-26T01:51:48;301.65;;;126.88;;
80926;SDS011;70385;44.538;18.532;2024-02-26T01:54:14;319.55;;;126.13;;
80926;SDS011;70385;44.538;18.532;2024-02-26T01:56:40;347.50;;;129.63;;
80926;SDS011;70385;44.538;18.532;2024-02-26T01:59:07;296.48;;;125.38;;
80926;SDS011;70385;44.538;18.532;2024-02-26T02:01:34;314.85;;;127.25;;
80926;SDS011;70385;44.538;18.532;2024-02-26T02:04:00;346.88;;;129.13;;
80926;SDS011;70385;44.538;18.532;2024-02-26T02:06:29;361.00;;;131.70;;
80926;SDS011;70385;44.538;18.532;2024-02-26T02:08:56;410.45;;;135.43;;
80926;SDS011;70385;44.538;18.532;2024-02-26T02:11:23;252.45;;;109.47;;
80926;SDS011;70385;44.538;18.532;2024-02-26T02:13:49;295.42;;;120.13;;
80926;SDS011;70385;44.538;18.532;2024-02-26T02:16:15;416.58;;;128.70;;
80926;SDS011;70385;44.538;18.532;2024-02-26T02:18:41;355.80;;;118.47;;
80926;SDS011;70385;44.538;18.532;2024-02-26T02:21:07;408.15;;;123.07;;
80926;SDS011;70385;44.538;18.532;2024-02-26T02:23:33;260.75;;;111.85;;
80926;SDS011;70385;44.538;18.532;2024-02-26T02:25:59;294.90;;;119.97;;
80926;SDS011;70385;44.538;18.532;2024-02-26T02:28:25;238.30;;;105.40;;
80926;SDS011;70385;44.538;18.532;2024-02-26T02:30:55;475.73;;;135.80;;
80926;SDS011;70385;44.538;18.532;2024-02-26T02:33:21;355.40;;;124.03;;
80926;SDS011;70385;44.538;18.532;2024-02-26T02:35:48;428.35;;;131.38;;
80926;SDS011;70385;44.538;18.532;2024-02-26T02:38:16;418.48;;;132.50;;
80926;SDS011;70385;44.538;18.532;2024-02-26T02:40:42;317.38;;;120.78;;
80926;SDS011;70385;44.538;18.532;2024-02-26T02:43:08;280.77;;;115.75;;
80926;SDS011;70385;44.538;18.532;2024-02-26T02:45:34;346.52;;;125.82;;
80926;SDS011;70385;44.538;18.532;2024-02-26T02:48:00;504.88;;;136.18;;
80926;SDS011;70385;44.538;18.532;2024-02-26T02:50:26;416.33;;;123.90;;
80926;SDS011;70385;44.538;18.532;2024-02-26T02:52:54;294.17;;;115.85;;
80926;SDS011;70385;44.538;18.532;2024-02-26T02:55:21;270.73;;;110.65;;
80926;SDS011;70385;44.538;18.532;2024-02-26T02:57:47;313.08;;;116.07;;
80926;SDS011;70385;44.538;18.532;2024-02-26T03:00:14;301.50;;;110.47;;
80926;SDS011;70385;44.538;18.532;2024-02-26T03:02:43;243.20;;;101.55;;
80926;SDS011;70385;44.538;18.532;2024-02-26T03:05:10;224.45;;;94.88;;
80926;SDS011;70385;44.538;18.532;2024-02-26T03:07:36;218.70;;;100.05;;
80926;SDS011;70385;44.538;18.532;2024-02-26T03:10:03;196.02;;;90.75;;
80926;SDS011;70385;44.538;18.532;2024-02-26T03:12:29;215.65;;;93.22;;
80926;SDS011;70385;44.538;18.532;2024-02-26T03:14:55;160.23;;;81.55;;
80926;SDS011;70385;44.538;18.532;2024-02-26T03:17:22;189.93;;;86.20;;
80926;SDS011;70385;44.538;18.532;2024-02-26T03:19:49;185.48;;;86.90;;
80926;SDS011;70385;44.538;18.532;2024-02-26T03:22:21;208.73;;;92.70;;
80926;SDS011;70385;44.538;18.532;2024-02-26T03:24:48;193.93;;;86.88;;
80926;SDS011;70385;44.538;18.532;2024-02-26T03:27:14;220.32;;;91.45;;
80926;SDS011;70385;44.538;18.532;2024-02-26T03:29:41;205.60;;;90.93;;
80926;SDS011;70385;44.538;18.532;2024-02-26T03:32:07;199.40;;;89.38;;
80926;SDS011;70385;44.538;18.532;2024-02-26T03:34:34;247.57;;;92.95;;
80926;SDS011;70385;44.538;18.532;2024-02-26T03:37:00;195.05;;;87.15;;
80926;SDS011;70385;44.538;18.532;2024-02-26T03:39:26;163.10;;;78.55;;
80926;SDS011;70385;44.538;18.532;2024-02-26T03:41:52;202.02;;;88.90;;
80926;SDS011;70385;44.538;18.532;2024-02-26T03:44:19;267.65;;;94.43;;
80926;SDS011;70385;44.538;18.532;2024-02-26T03:46:47;222.05;;;90.00;;
80926;SDS011;70385;44.538;18.532;2024-02-26T03:49:13;226.55;;;92.25;;
80926;SDS011;70385;44.538;18.532;2024-02-26T03:51:39;236.50;;;95.03;;
80926;SDS011;70385;44.538;18.532;2024-02-26T03:54:05;250.18;;;94.40;;
80926;SDS011;70385;44.538;18.532;2024-02-26T03:56:31;231.95;;;92.28;;
80926;SDS011;70385;44.538;18.532;2024-02-26T03:58:59;198.80;;;89.82;;
80926;SDS011;70385;44.538;18.532;2024-02-26T04:01:27;239.50;;;93.38;;
80926;SDS011;70385;44.538;18.532;2024-02-26T04:03:54;356.45;;;107.07;;
80926;SDS011;70385;44.538;18.532;2024-02-26T04:06:20;266.70;;;101.65;;
80926;SDS011;70385;44.538;18.532;2024-02-26T04:08:49;374.00;;;111.50;;
80926;SDS011;70385;44.538;18.532;2024-02-26T04:11:14;367.00;;;110.70;;
80926;SDS011;70385;44.538;18.532;2024-02-26T04:13:43;375.63;;;108.22;;
80926;SDS011;70385;44.538;18.532;2024-02-26T04:16:12;325.98;;;110.82;;
80926;SDS011;70385;44.538;18.532;2024-02-26T04:18:41;237.57;;;105.30;;
80926;SDS011;70385;44.538;18.532;2024-02-26T04:21:07;251.90;;;102.63;;
80926;SDS011;70385;44.538;18.532;2024-02-26T04:23:39;289.83;;;105.38;;
80926;SDS011;70385;44.538;18.532;2024-02-26T04:26:04;314.67;;;105.63;;
80926;SDS011;70385;44.538;18.532;2024-02-26T04:28:30;318.00;;;104.25;;
80926;SDS011;70385;44.538;18.532;2024-02-26T04:30:56;346.58;;;109.35;;
80926;SDS011;70385;44.538;18.532;2024-02-26T04:33:22;260.20;;;100.28;;
80926;SDS011;70385;44.538;18.532;2024-02-26T04:35:48;259.30;;;99.25;;
80926;SDS011;70385;44.538;18.532;2024-02-26T04:38:14;255.20;;;101.68;;
80926;SDS011;70385;44.538;18.532;2024-02-26T04:40:40;361.33;;;110.82;;
80926;SDS011;70385;44.538;18.532;2024-02-26T04:43:06;241.43;;;98.93;;
80926;SDS011;70385;44.538;18.532;2024-02-26T04:45:32;282.92;;;104.28;;
80926;SDS011;70385;44.538;18.532;2024-02-26T04:48:00;255.13;;;96.70;;
80926;SDS011;70385;44.538;18.532;2024-02-26T04:50:28;208.93;;;89.40;;
80926;SDS011;70385;44.538;18.532;2024-02-26T04:52:54;262.05;;;91.38;;
80926;SDS011;70385;44.538;18.532;2024-02-26T04:55:20;226.65;;;87.53;;
80926;SDS011;70385;44.538;18.532;2024-02-26T04:57:47;248.05;;;89.60;;
80926;SDS011;70385;44.538;18.532;2024-02-26T05:00:14;222.95;;;86.72;;
80926;SDS011;70385;44.538;18.532;2024-02-26T05:02:40;395.40;;;96.97;;
80926;SDS011;70385;44.538;18.532;2024-02-26T05:05:06;264.42;;;88.30;;
80926;SDS011;70385;44.538;18.532;2024-02-26T05:07:34;296.45;;;87.78;;
80926;SDS011;70385;44.538;18.532;2024-02-26T05:10:04;325.52;;;90.68;;
80926;SDS011;70385;44.538;18.532;2024-02-26T05:12:31;296.90;;;90.05;;
80926;SDS011;70385;44.538;18.532;2024-02-26T05:15:01;298.25;;;89.82;;
80926;SDS011;70385;44.538;18.532;2024-02-26T05:17:28;339.42;;;93.40;;
80926;SDS011;70385;44.538;18.532;2024-02-26T05:19:55;282.35;;;90.32;;
80926;SDS011;70385;44.538;18.532;2024-02-26T05:22:21;383.08;;;96.25;;
80926;SDS011;70385;44.538;18.532;2024-02-26T05:24:47;365.65;;;97.50;;
80926;SDS011;70385;44.538;18.532;2024-02-26T05:27:16;206.55;;;77.35;;
80926;SDS011;70385;44.538;18.532;2024-02-26T05:29:42;186.20;;;70.18;;
80926;SDS011;70385;44.538;18.532;2024-02-26T05:32:07;222.93;;;72.13;;
80926;SDS011;70385;44.538;18.532;2024-02-26T05:34:35;258.73;;;73.93;;
80926;SDS011;70385;44.538;18.532;2024-02-26T05:37:03;199.57;;;67.55;;
80926;SDS011;70385;44.538;18.532;2024-02-26T05:39:29;165.82;;;66.10;;
80926;SDS011;70385;44.538;18.532;2024-02-26T05:41:55;181.60;;;68.90;;
80926;SDS011;70385;44.538;18.532;2024-02-26T05:44:22;159.40;;;66.05;;
80926;SDS011;70385;44.538;18.532;2024-02-26T05:46:50;158.35;;;65.95;;
80926;SDS011;70385;44.538;18.532;2024-02-26T05:49:19;155.27;;;65.72;;
80926;SDS011;70385;44.538;18.532;2024-02-26T05:51:45;145.32;;;62.80;;
80926;SDS011;70385;44.538;18.532;2024-02-26T05:54:11;153.75;;;63.45;;
80926;SDS011;70385;44.538;18.532;2024-02-26T05:56:36;147.43;;;64.40;;
80926;SDS011;70385;44.538;18.532;2024-02-26T05:59:04;148.10;;;63.38;;
80926;SDS011;70385;44.538;18.532;2024-02-26T06:01:30;129.60;;;67.00;;
80926;SDS011;70385;44.538;18.532;2024-02-26T06:04:03;119.97;;;58.88;;
80926;SDS011;70385;44.538;18.532;2024-02-26T06:06:32;129.05;;;67.45;;
80926;SDS011;70385;44.538;18.532;2024-02-26T06:08:58;99.05;;;51.35;;
80926;SDS011;70385;44.538;18.532;2024-02-26T06:11:24;104.68;;;49.40;;
80926;SDS011;70385;44.538;18.532;2024-02-26T06:13:51;101.43;;;48.03;;
80926;SDS011;70385;44.538;18.532;2024-02-26T06:16:24;103.15;;;48.72;;
80926;SDS011;70385;44.538;18.532;2024-02-26T06:18:50;108.72;;;48.05;;
80926;SDS011;70385;44.538;18.532;2024-02-26T06:21:16;95.68;;;47.72;;
80926;SDS011;70385;44.538;18.532;2024-02-26T06:24:30;103.53;;;48.30;;
80926;SDS011;70385;44.538;18.532;2024-02-26T06:26:57;95.32;;;45.83;;
80926;SDS011;70385;44.538;18.532;2024-02-26T06:29:24;123.05;;;53.20;;
80926;SDS011;70385;44.538;18.532;2024-02-26T06:31:51;111.32;;;49.80;;
80926;SDS011;70385;44.538;18.532;2024-02-26T06:34:21;174.73;;;60.17;;
80926;SDS011;70385;44.538;18.532;2024-02-26T06:36:47;112.05;;;50.55;;
80926;SDS011;70385;44.538;18.532;2024-02-26T06:39:13;95.95;;;49.55;;
80926;SDS011;70385;44.538;18.532;2024-02-26T06:41:43;122.10;;;53.60;;
80926;SDS011;70385;44.538;18.532;2024-02-26T06:44:12;125.47;;;52.47;;
80926;SDS011;70385;44.538;18.532;2024-02-26T06:46:39;96.93;;;45.92;;
80926;SDS011;70385;44.538;18.532;2024-02-26T06:49:10;97.47;;;44.92;;
80926;SDS011;70385;44.538;18.532;2024-02-26T06:51:38;92.70;;;43.25;;
80926;SDS011;70385;44.538;18.532;2024-02-26T06:54:04;101.05;;;45.75;;
80926;SDS011;70385;44.538;18.532;2024-02-26T06:56:43;104.88;;;49.58;;
80926;SDS011;70385;44.538;18.532;2024-02-26T06:59:14;112.95;;;49.88;;
80926;SDS011;70385;44.538;18.532;2024-02-26T07:01:43;120.22;;;51.95;;
80926;SDS011;70385;44.538;18.532;2024-02-26T07:04:20;152.88;;;57.95;;
80926;SDS011;70385;44.538;18.532;2024-02-26T07:06:46;221.23;;;65.15;;
80926;SDS011;70385;44.538;18.532;2024-02-26T07:09:16;168.65;;;62.33;;
80926;SDS011;70385;44.538;18.532;2024-02-26T07:11:45;158.32;;;62.05;;
80926;SDS011;70385;44.538;18.532;2024-02-26T07:14:22;165.02;;;62.00;;
80926;SDS011;70385;44.538;18.532;2024-02-26T07:16:55;177.05;;;63.05;;
80926;SDS011;70385;44.538;18.532;2024-02-26T07:19:24;130.25;;;51.15;;
80926;SDS011;70385;44.538;18.532;2024-02-26T07:22:07;120.32;;;53.60;;
80926;SDS011;70385;44.538;18.532;2024-02-26T07:24:41;164.95;;;53.13;;
80926;SDS011;70385;44.538;18.532;2024-02-26T07:30:51;122.18;;;49.80;;
80926;SDS011;70385;44.538;18.532;2024-02-26T07:33:20;119.00;;;50.80;;
80926;SDS011;70385;44.538;18.532;2024-02-26T07:40:08;156.32;;;56.75;;
80926;SDS011;70385;44.538;18.532;2024-02-26T07:42:34;136.68;;;54.10;;
80926;SDS011;70385;44.538;18.532;2024-02-26T07:45:01;135.52;;;55.47;;
80926;SDS011;70385;44.538;18.532;2024-02-26T07:47:28;130.55;;;53.45;;
80926;SDS011;70385;44.538;18.532;2024-02-26T07:49:56;148.10;;;56.75;;
80926;SDS011;70385;44.538;18.532;2024-02-26T07:52:44;154.93;;;59.40;;
80926;SDS011;70385;44.538;18.532;2024-02-26T07:55:10;138.90;;;55.95;;
80926;SDS011;70385;44.538;18.532;2024-02-26T07:57:41;159.18;;;60.78;;
80926;SDS011;70385;44.538;18.532;2024-02-26T08:00:10;159.38;;;59.40;;
80926;SDS011;70385;44.538;18.532;2024-02-26T08:02:36;164.45;;;68.22;;
80926;SDS011;70385;44.538;18.532;2024-02-26T08:05:21;173.68;;;67.47;;
80926;SDS011;70385;44.538;18.532;2024-02-26T08:07:47;198.73;;;69.47;;
80926;SDS011;70385;44.538;18.532;2024-02-26T08:10:14;203.50;;;71.45;;
80926;SDS011;70385;44.538;18.532;2024-02-26T08:12:54;181.20;;;67.22;;
80926;SDS011;70385;44.538;18.532;2024-02-26T08:15:38;187.10;;;65.82;;
80926;SDS011;70385;44.538;18.532;2024-02-26T08:18:13;141.73;;;62.92;;
80926;SDS011;70385;44.538;18.532;2024-02-26T08:20:41;150.90;;;59.17;;
80926;SDS011;70385;44.538;18.532;2024-02-26T08:23:07;132.48;;;56.30;;
80926;SDS011;70385;44.538;18.532;2024-02-26T08:25:42;142.38;;;57.47;;
80926;SDS011;70385;44.538;18.532;2024-02-26T08:28:17;128.40;;;53.92;;
80926;SDS011;70385;44.538;18.532;2024-02-26T08:30:55;122.78;;;53.70;;
80926;SDS011;70385;44.538;18.532;2024-02-26T08:33:21;122.25;;;53.30;;
80926;SDS011;70385;44.538;18.532;2024-02-26T08:35:47;130.93;;;50.70;;
80926;SDS011;70385;44.538;18.532;2024-02-26T08:38:23;119.20;;;49.83;;
80926;SDS011;70385;44.538;18.532;2024-02-26T08:41:18;121.70;;;50.72;;
80926;SDS011;70385;44.538;18.532;2024-02-26T08:44:08;119.90;;;49.78;;
80926;SDS011;70385;44.538;18.532;2024-02-26T08:47:12;120.32;;;48.13;;
80926;SDS011;70385;44.538;18.532;2024-02-26T08:49:46;122.78;;;51.15;;
80926;SDS011;70385;44.538;18.532;2024-02-26T08:52:19;123.70;;;52.05;;
80926;SDS011;70385;44.538;18.532;2024-02-26T08:54:48;129.20;;;55.75;;
80926;SDS011;70385;44.538;18.532;2024-02-26T08:57:23;125.05;;;51.67;;
80926;SDS011;70385;44.538;18.532;2024-02-26T08:59:55;166.30;;;67.25;;
80926;SDS011;70385;44.538;18.532;2024-02-26T09:02:33;166.80;;;63.33;;
80926;SDS011;70385;44.538;18.532;2024-02-26T09:05:12;168.07;;;64.45;;
80926;SDS011;70385;44.538;18.532;2024-02-26T09:08:11;151.50;;;60.20;;
80926;SDS011;70385;44.538;18.532;2024-02-26T09:11:21;177.60;;;68.70;;
80926;SDS011;70385;44.538;18.532;2024-02-26T09:16:43;182.85;;;69.80;;
80926;SDS011;70385;44.538;18.532;2024-02-26T09:19:17;131.73;;;56.22;;
80926;SDS011;70385;44.538;18.532;2024-02-26T09:24:23;142.32;;;60.05;;
80926;SDS011;70385;44.538;18.532;2024-02-26T09:27:22;146.77;;;63.20;;
80926;SDS011;70385;44.538;18.532;2024-02-26T09:30:05;148.93;;;62.47;;
80926;SDS011;70385;44.538;18.532;2024-02-26T09:32:41;141.45;;;61.45;;
80926;SDS011;70385;44.538;18.532;2024-02-26T09:35:23;153.93;;;62.83;;
80926;SDS011;70385;44.538;18.532;2024-02-26T09:38:03;164.60;;;66.35;;
80926;SDS011;70385;44.538;18.532;2024-02-26T09:40:51;150.70;;;63.20;;
80926;SDS011;70385;44.538;18.532;2024-02-26T09:43:26;154.77;;;63.65;;
80926;SDS011;70385;44.538;18.532;2024-02-26T09:46:10;140.93;;;56.47;;
80926;SDS011;70385;44.538;18.532;2024-02-26T09:52:25;167.23;;;66.47;;
80926;SDS011;70385;44.538;18.532;2024-02-26T09:55:09;155.40;;;66.18;;
80926;SDS011;70385;44.538;18.532;2024-02-26T09:57:36;171.88;;;66.68;;
80926;SDS011;70385;44.538;18.532;2024-02-26T10:00:17;157.63;;;65.20;;
80926;SDS011;70385;44.538;18.532;2024-02-26T10:02:50;190.25;;;71.22;;
80926;SDS011;70385;44.538;18.532;2024-02-26T10:05:26;181.63;;;71.85;;
80926;SDS011;70385;44.538;18.532;2024-02-26T10:07:58;183.90;;;69.53;;
80926;SDS011;70385;44.538;18.532;2024-02-26T10:10:28;206.27;;;73.40;;
80926;SDS011;70385;44.538;18.532;2024-02-26T10:12:58;378.92;;;108.78;;
80926;SDS011;70385;44.538;18.532;2024-02-26T10:15:31;399.40;;;110.90;;
80926;SDS011;70385;44.538;18.532;2024-02-26T10:18:05;440.50;;;122.97;;
80926;SDS011;70385;44.538;18.532;2024-02-26T10:20:31;416.98;;;116.43;;
80926;SDS011;70385;44.538;18.532;2024-02-26T10:23:04;412.63;;;116.95;;
80926;SDS011;70385;44.538;18.532;2024-02-26T10:25:33;530.20;;;153.02;;
80926;SDS011;70385;44.538;18.532;2024-02-26T10:28:05;515.80;;;153.43;;
80926;SDS011;70385;44.538;18.532;2024-02-26T10:30:46;486.27;;;141.35;;
80926;SDS011;70385;44.538;18.532;2024-02-26T10:33:24;471.45;;;140.20;;
80926;SDS011;70385;44.538;18.532;2024-02-26T10:36:12;435.35;;;130.15;;
80926;SDS011;70385;44.538;18.532;2024-02-26T10:38:41;463.25;;;135.32;;
80926;SDS011;70385;44.538;18.532;2024-02-26T10:41:07;412.73;;;124.30;;
80926;SDS011;70385;44.538;18.532;2024-02-26T10:43:41;370.85;;;111.72;;
80926;SDS011;70385;44.538;18.532;2024-02-26T10:46:14;370.73;;;112.70;;
80926;SDS011;70385;44.538;18.532;2024-02-26T10:48:52;316.52;;;97.50;;
80926;SDS011;70385;44.538;18.532;2024-02-26T10:51:32;293.80;;;96.70;;
80926;SDS011;70385;44.538;18.532;2024-02-26T10:54:08;282.10;;;98.28;;
80926;SDS011;70385;44.538;18.532;2024-02-26T10:56:43;286.70;;;94.47;;
80926;SDS011;70385;44.538;18.532;2024-02-26T10:59:34;229.90;;;84.70;;
80926;SDS011;70385;44.538;18.532;2024-02-26T11:02:15;241.60;;;87.35;;
80926;SDS011;70385;44.538;18.532;2024-02-26T11:04:46;207.25;;;76.45;;
80926;SDS011;70385;44.538;18.532;2024-02-26T11:07:22;227.45;;;82.82;;
80926;SDS011;70385;44.538;18.532;2024-02-26T11:09:59;230.27;;;78.50;;
80926;SDS011;70385;44.538;18.532;2024-02-26T11:12:27;227.00;;;81.20;;
80926;SDS011;70385;44.538;18.532;2024-02-26T11:17:42;200.35;;;72.95;;
80926;SDS011;70385;44.538;18.532;2024-02-26T11:20:33;202.07;;;72.38;;
80926;SDS011;70385;44.538;18.532;2024-02-26T11:23:04;196.23;;;71.18;;
80926;SDS011;70385;44.538;18.532;2024-02-26T11:25:35;187.57;;;70.95;;
80926;SDS011;70385;44.538;18.532;2024-02-26T11:28:09;194.18;;;70.95;;
80926;SDS011;70385;44.538;18.532;2024-02-26T11:30:47;178.20;;;66.75;;
80926;SDS011;70385;44.538;18.532;2024-02-26T11:33:15;176.45;;;65.07;;
80926;SDS011;70385;44.538;18.532;2024-02-26T11:39:03;155.73;;;59.33;;
80926;SDS011;70385;44.538;18.532;2024-02-26T11:41:43;131.02;;;49.95;;
80926;SDS011;70385;44.538;18.532;2024-02-26T11:47:55;149.32;;;54.40;;
80926;SDS011;70385;44.538;18.532;2024-02-26T11:50:36;133.05;;;48.15;;
80926;SDS011;70385;44.538;18.532;2024-02-26T11:53:20;94.75;;;40.60;;
80926;SDS011;70385;44.538;18.532;2024-02-26T11:58:46;88.70;;;37.33;;
80926;SDS011;70385;44.538;18.532;2024-02-26T12:04:12;69.25;;;27.73;;
80926;SDS011;70385;44.538;18.532;2024-02-26T12:06:48;68.15;;;25.00;;
80926;SDS011;70385;44.538;18.532;2024-02-26T12:09:31;46.58;;;19.95;;
80926;SDS011;70385;44.538;18.532;2024-02-26T12:12:07;32.88;;;12.90;;
80926;SDS011;70385;44.538;18.532;2024-02-26T12:14:40;33.60;;;13.23;;
80926;SDS011;70385;44.538;18.532;2024-02-26T12:17:19;25.15;;;10.57;;
80926;SDS011;70385;44.538;18.532;2024-02-26T12:19:49;28.30;;;11.82;;
80926;SDS011;70385;44.538;18.532;2024-02-26T12:22:18;23.60;;;10.43;;
80926;SDS011;70385;44.538;18.532;2024-02-26T12:24:46;28.70;;;12.68;;
80926;SDS011;70385;44.538;18.532;2024-02-26T12:27:15;20.98;;;9.13;;
80926;SDS011;70385;44.538;18.532;2024-02-26T12:29:41;16.58;;;7.90;;
80926;SDS011;70385;44.538;18.532;2024-02-26T12:32:07;18.98;;;9.82;;
80926;SDS011;70385;44.538;18.532;2024-02-26T12:34:37;23.48;;;9.65;;
80926;SDS011;70385;44.538;18.532;2024-02-26T12:37:04;21.38;;;9.63;;
80926;SDS011;70385;44.538;18.532;2024-02-26T12:39:30;24.02;;;9.82;;
80926;SDS011;70385;44.538;18.532;2024-02-26T12:41:57;20.33;;;8.77;;
80926;SDS011;70385;44.538;18.532;2024-02-26T12:44:25;15.50;;;7.68;;
80926;SDS011;70385;44.538;18.532;2024-02-26T12:46:59;13.25;;;6.53;;
80926;SDS011;70385;44.538;18.532;2024-02-26T12:49:28;19.65;;;7.18;;
80926;SDS011;70385;44.538;18.532;2024-02-26T12:51:56;14.48;;;6.55;;
80926;SDS011;70385;44.538;18.532;2024-02-26T12:54:30;13.50;;;5.40;;
80926;SDS011;70385;44.538;18.532;2024-02-26T12:56:57;14.45;;;4.90;;
80926;SDS011;70385;44.538;18.532;2024-02-26T12:59:24;10.70;;;4.95;;
80926;SDS011;70385;44.538;18.532;2024-02-26T13:01:50;11.23;;;4.57;;
80926;SDS011;70385;44.538;18.532;2024-02-26T13:04:16;15.77;;;5.57;;
80926;SDS011;70385;44.538;18.532;2024-02-26T13:06:44;13.20;;;5.15;;
80926;SDS011;70385;44.538;18.532;2024-02-26T13:09:14;10.23;;;5.28;;
80926;SDS011;70385;44.538;18.532;2024-02-26T13:11:40;22.65;;;7.40;;
80926;SDS011;70385;44.538;18.532;2024-02-26T13:14:06;16.50;;;7.53;;
80926;SDS011;70385;44.538;18.532;2024-02-26T13:16:32;18.63;;;8.15;;
80926;SDS011;70385;44.538;18.532;2024-02-26T13:19:11;20.85;;;8.35;;
80926;SDS011;70385;44.538;18.532;2024-02-26T13:21:37;19.35;;;9.00;;
80926;SDS011;70385;44.538;18.532;2024-02-26T13:24:07;19.08;;;8.32;;
80926;SDS011;70385;44.538;18.532;2024-02-26T13:26:33;22.33;;;9.00;;
80926;SDS011;70385;44.538;18.532;2024-02-26T13:29:02;22.02;;;9.40;;
80926;SDS011;70385;44.538;18.532;2024-02-26T13:31:30;26.85;;;10.07;;
80926;SDS011;70385;44.538;18.532;2024-02-26T13:33:59;24.73;;;9.00;;
80926;SDS011;70385;44.538;18.532;2024-02-26T13:36:26;20.58;;;9.05;;
80926;SDS011;70385;44.538;18.532;2024-02-26T13:38:53;22.20;;;8.10;;
80926;SDS011;70385;44.538;18.532;2024-02-26T13:41:21;24.83;;;10.43;;
80926;SDS011;70385;44.538;18.532;2024-02-26T13:43:47;26.33;;;9.18;;
80926;SDS011;70385;44.538;18.532;2024-02-26T13:46:14;18.50;;;8.85;;
80926;SDS011;70385;44.538;18.532;2024-02-26T13:48:43;23.45;;;9.60;;
80926;SDS011;70385;44.538;18.532;2024-02-26T13:51:09;22.13;;;9.52;;
80926;SDS011;70385;44.538;18.532;2024-02-26T13:53:35;21.67;;;9.02;;
80926;SDS011;70385;44.538;18.532;2024-02-26T13:56:03;20.55;;;7.93;;
80926;SDS011;70385;44.538;18.532;2024-02-26T13:58:33;18.35;;;8.63;;
80926;SDS011;70385;44.538;18.532;2024-02-26T14:00:59;20.38;;;8.32;;
80926;SDS011;70385;44.538;18.532;2024-02-26T14:03:29;17.60;;;8.18;;
80926;SDS011;70385;44.538;18.532;2024-02-26T14:05:54;20.73;;;8.52;;
80926;SDS011;70385;44.538;18.532;2024-02-26T14:08:22;22.95;;;9.10;;
80926;SDS011;70385;44.538;18.532;2024-02-26T14:10:48;31.08;;;10.52;;
80926;SDS011;70385;44.538;18.532;2024-02-26T14:13:14;25.13;;;9.60;;
80926;SDS011;70385;44.538;18.532;2024-02-26T14:15:40;19.48;;;8.85;;
80926;SDS011;70385;44.538;18.532;2024-02-26T14:18:07;17.23;;;6.72;;
80926;SDS011;70385;44.538;18.532;2024-02-26T14:20:33;13.43;;;6.32;;
80926;SDS011;70385;44.538;18.532;2024-02-26T14:23:02;16.13;;;6.03;;
80926;SDS011;70385;44.538;18.532;2024-02-26T14:25:30;14.80;;;6.00;;
80926;SDS011;70385;44.538;18.532;2024-02-26T14:27:56;14.85;;;6.63;;
80926;SDS011;70385;44.538;18.532;2024-02-26T14:30:26;13.88;;;6.20;;
80926;SDS011;70385;44.538;18.532;2024-02-26T14:32:53;14.57;;;6.97;;
80926;SDS011;70385;44.538;18.532;2024-02-26T14:35:19;16.70;;;6.57;;
80926;SDS011;70385;44.538;18.532;2024-02-26T14:37:45;20.08;;;6.90;;
80926;SDS011;70385;44.538;18.532;2024-02-26T14:40:20;15.77;;;6.78;;
80926;SDS011;70385;44.538;18.532;2024-02-26T14:42:46;12.95;;;6.53;;
80926;SDS011;70385;44.538;18.532;2024-02-26T14:45:12;15.10;;;6.72;;
80926;SDS011;70385;44.538;18.532;2024-02-26T14:47:39;16.27;;;6.35;;